Churchill, Virginia
Current Conditions -  °F | °C
As of 10:54 AM on Monday 24 Nov 2014 (Local Time) from KRIC Reporting Station
Scattered Clouds Scattered Clouds  
Wind Chill: 70°   Ceiling: Unl
Heat Index: 70°   Visibility: 10mi
Dew Point: 56°   Wind: 26mph
Humidity: 61%   Direction: 210°SSW
Pressure: 29.76"   Gusts: 36mph
Location:  37.556°N, 77.3779°W
Report Text: KRIC 241554Z 21023G31KT 10SM SCT029 21/13 A2976 RMK AO2 PK WND 21031/1549 SLP081 T02110133
Loading
Personal Weather Stations






























Interactive Weather Map New forecast layout! Learn more

10-Day Weather Forecast

Advertisements
Track Severe Weather on mobile